Bordeaux, Wyoming
Current Conditions -  °F | °C
As of 1:35 PM on Thursday 29 Jan 2015 (Local Time) from KGUR Reporting Station
Clear Clear  
Wind Chill: 54°   Ceiling: Unl
Heat Index: 54°   Visibility: 10mi
Dew Point: 22°   Wind: 5mph
Humidity: 29%   Direction: 160°SSE
Pressure: 30.41"   Gusts: NA
Location:  42.0178°N, 105.098°W
Report Text: KGUR 292035Z AUTO 16004KT 10SM CLR 12/M06 A3041 RMK AO2 T01201056
Loading
Personal Weather Stations






























Interactive Weather Map New forecast layout! Learn more

10-Day Weather Forecast

Advertisements
Track Severe Weather on mobile